Time;durP1;ratioP1;P1;durP2;ratioP2;P2;SDS_P1;SDS_P2;PMS_P1;PMS_P2;Temp;Humidity;BMP_temperature;BMP_pressure;BME280_temperature;BME280_humidity;BME280_pressure;Samples;Min_cycle;Max_cycle;Signal;HPM_P1;HPM_P2
2023/05/14 00:00:46;;;;;;;5.03;4.50;;;;;;;;;;5072518;28;20226;-59
2023/05/14 00:03:12;;;;;;;5.83;4.57;;;;;;;;;;5071167;28;20502;-59
2023/05/14 00:05:38;;;;;;;5.27;4.77;;;;;;;;;;5072439;28;20586;-59
2023/05/14 00:08:05;;;;;;;6.20;4.90;;;;;;;;;;5072529;28;20203;-59
2023/05/14 00:10:31;;;;;;;6.27;5.33;;;;;;;;;;5071230;28;20420;-59
2023/05/14 00:12:57;;;;;;;5.63;5.03;;;;;;;;;;5072297;28;20196;-59
2023/05/14 00:15:23;;;;;;;5.50;4.93;;;;;;;;;;5072361;28;20577;-59
2023/05/14 00:17:49;;;;;;;5.57;4.70;;;;;;;;;;5072334;28;20192;-59
2023/05/14 00:20:15;;;;;;;5.40;4.10;;;;;;;;;;5072294;28;20562;-59
2023/05/14 00:22:41;;;;;;;6.07;3.93;;;;;;;;;;5072170;28;20274;-58
2023/05/14 00:25:09;;;;;;;5.83;4.10;;;;;;;;;;5072211;28;20619;-57
2023/05/14 00:27:36;;;;;;;5.13;4.50;;;;;;;;;;5072252;28;20281;-58
2023/05/14 00:30:03;;;;;;;4.30;3.90;;;;;;;;;;5071588;28;20195;-58
2023/05/14 00:32:29;;;;;;;4.65;4.00;;;;;;;;;;5070814;28;20943;-58
2023/05/14 00:34:55;;;;;;;4.87;4.10;;;;;;;;;;5071425;28;20232;-58
2023/05/14 00:37:21;;;;;;;4.78;4.30;;;;;;;;;;5070128;28;20415;-58
2023/05/14 00:39:47;;;;;;;4.43;4.03;;;;;;;;;;5069851;28;20486;-58
2023/05/14 00:42:14;;;;;;;4.23;3.87;;;;;;;;;;5071132;28;20735;-58
2023/05/14 00:44:40;;;;;;;5.67;3.87;;;;;;;;;;5071075;28;20208;-58
2023/05/14 00:47:07;;;;;;;5.57;4.00;;;;;;;;;;5071014;28;20230;-59
2023/05/14 00:49:33;;;;;;;5.07;4.10;;;;;;;;;;5071145;28;20246;-58
2023/05/14 00:51:59;;;;;;;6.10;3.90;;;;;;;;;;5070851;28;20234;-58
2023/05/14 00:54:26;;;;;;;5.57;4.23;;;;;;;;;;5070839;28;20199;-58
2023/05/14 00:56:52;;;;;;;4.70;4.20;;;;;;;;;;5069697;28;20400;-58
2023/05/14 00:59:20;;;;;;;4.50;4.10;;;;;;;;;;5069699;28;20411;-58
2023/05/14 01:01:46;;;;;;;4.93;4.38;;;;;;;;;;5069475;28;20410;-58
2023/05/14 01:04:12;;;;;;;4.85;4.35;;;;;;;;;;5069282;28;20395;-58
2023/05/14 01:06:43;;;;;;;5.15;4.53;;;;;;;;;;5069496;28;20462;-58
2023/05/14 01:09:13;;;;;;;5.40;4.55;;;;;;;;;;5069386;28;20410;-58
2023/05/14 01:11:41;;;;;;;4.93;4.18;;;;;;;;;;5069557;28;20449;-58
2023/05/14 01:14:10;;;;;;;4.60;4.20;;;;;;;;;;5069289;28;20503;-58
2023/05/14 01:16:39;;;;;;;5.63;4.50;;;;;;;;;;5069353;28;20754;-58
2023/05/14 01:19:07;;;;;;;4.88;4.45;;;;;;;;;;5069401;28;20411;-58
2023/05/14 01:21:36;;;;;;;5.72;4.60;;;;;;;;;;5069462;28;20728;-58
2023/05/14 01:24:02;;;;;;;5.10;4.60;;;;;;;;;;5069197;28;20400;-58
2023/05/14 01:26:30;;;;;;;4.85;4.35;;;;;;;;;;5069162;28;20465;-58
2023/05/14 01:28:58;;;;;;;4.53;4.13;;;;;;;;;;5069070;28;20423;-58
2023/05/14 01:31:27;;;;;;;4.77;4.37;;;;;;;;;;5069202;28;20414;-58
2023/05/14 01:33:54;;;;;;;4.77;4.33;;;;;;;;;;5069339;28;20407;-58
2023/05/14 01:36:20;;;;;;;5.15;4.65;;;;;;;;;;5034019;28;1026873;-58
2023/05/14 01:38:50;;;;;;;4.88;4.35;;;;;;;;;;5069967;28;20482;-58
2023/05/14 01:41:16;;;;;;;4.68;4.28;;;;;;;;;;5070419;28;20419;-58
2023/05/14 01:43:42;;;;;;;4.70;4.30;;;;;;;;;;5073946;28;20395;-58
2023/05/14 01:46:08;;;;;;;4.55;4.15;;;;;;;;;;5073808;28;20431;-58
2023/05/14 01:48:34;;;;;;;4.82;4.28;;;;;;;;;;5074152;28;20406;-58
2023/05/14 01:51:01;;;;;;;5.60;4.65;;;;;;;;;;5073810;28;20502;-58
2023/05/14 01:53:27;;;;;;;5.20;4.10;;;;;;;;;;5073795;28;20400;-58
2023/05/14 01:55:54;;;;;;;4.82;4.38;;;;;;;;;;5073745;28;20486;-58
2023/05/14 01:58:20;;;;;;;4.93;4.32;;;;;;;;;;5074022;28;20770;-58
2023/05/14 02:00:46;;;;;;;4.63;4.20;;;;;;;;;;5073688;28;20954;-58
2023/05/14 02:03:12;;;;;;;4.90;4.45;;;;;;;;;;5073415;28;20403;-58
2023/05/14 02:05:38;;;;;;;4.57;4.18;;;;;;;;;;5073522;28;20410;-58
2023/05/14 02:08:04;;;;;;;4.80;4.30;;;;;;;;;;5073571;28;20474;-58
2023/05/14 02:10:30;;;;;;;5.43;4.82;;;;;;;;;;5073519;28;20411;-58
2023/05/14 02:12:58;;;;;;;4.93;4.43;;;;;;;;;;5073325;28;20417;-58
2023/05/14 02:15:24;;;;;;;5.32;4.43;;;;;;;;;;5073408;28;20411;-58
2023/05/14 02:17:50;;;;;;;5.18;4.57;;;;;;;;;;5073431;28;20430;-58
2023/05/14 02:20:16;;;;;;;4.70;4.25;;;;;;;;;;5073224;28;20420;-58
2023/05/14 02:22:44;;;;;;;5.03;4.50;;;;;;;;;;5073326;28;20419;-58
2023/05/14 02:25:10;;;;;;;5.00;4.47;;;;;;;;;;5073083;28;20475;-58
2023/05/14 02:27:36;;;;;;;5.18;4.68;;;;;;;;;;5073289;28;20481;-58
2023/05/14 02:30:04;;;;;;;5.03;4.53;;;;;;;;;;5073140;28;20403;-58
2023/05/14 02:32:30;;;;;;;5.50;4.88;;;;;;;;;;5072925;28;20450;-58
2023/05/14 02:34:56;;;;;;;5.20;4.80;;;;;;;;;;5072888;28;20411;-58
2023/05/14 02:37:22;;;;;;;5.07;4.60;;;;;;;;;;5073086;28;20400;-58
2023/05/14 02:39:48;;;;;;;5.00;4.50;;;;;;;;;;5073097;28;20388;-58
2023/05/14 02:42:14;;;;;;;5.15;4.65;;;;;;;;;;5072757;28;20925;-58
2023/05/14 02:44:40;;;;;;;4.97;4.50;;;;;;;;;;5072821;28;20927;-58
2023/05/14 02:47:07;;;;;;;5.00;4.50;;;;;;;;;;5072790;28;20411;-58
2023/05/14 02:49:33;;;;;;;5.32;4.82;;;;;;;;;;5073026;28;20403;-58
2023/05/14 02:51:59;;;;;;;5.20;4.70;;;;;;;;;;5072200;28;20403;-58
2023/05/14 02:54:25;;;;;;;4.93;4.50;;;;;;;;;;5072742;28;20395;-57
2023/05/14 02:56:51;;;;;;;6.53;4.90;;;;;;;;;;5072880;28;20395;-57
2023/05/14 02:59:17;;;;;;;6.57;4.90;;;;;;;;;;5072525;28;20765;-58
2023/05/14 03:01:43;;;;;;;5.45;4.95;;;;;;;;;;5072627;28;20394;-58
2023/05/14 03:04:11;;;;;;;5.30;4.90;;;;;;;;;;5072435;28;20441;-58
2023/05/14 03:06:37;;;;;;;5.70;5.10;;;;;;;;;;5072603;28;20430;-57
2023/05/14 03:09:03;;;;;;;5.60;5.10;;;;;;;;;;5072511;28;20399;-58
2023/05/14 03:11:29;;;;;;;5.63;5.13;;;;;;;;;;5072587;28;20591;-58
2023/05/14 03:13:55;;;;;;;5.60;5.10;;;;;;;;;;5072589;28;20399;-57
2023/05/14 03:16:21;;;;;;;5.18;4.78;;;;;;;;;;5072437;28;20400;-58
2023/05/14 03:18:47;;;;;;;5.68;5.10;;;;;;;;;;5072403;28;20736;-57
2023/05/14 03:21:14;;;;;;;5.80;5.03;;;;;;;;;;5072215;28;20466;-57
2023/05/14 03:23:40;;;;;;;5.82;5.30;;;;;;;;;;5072132;28;20901;-58
2023/05/14 03:26:07;;;;;;;5.75;5.18;;;;;;;;;;5072182;28;20407;-58
2023/05/14 03:28:33;;;;;;;6.45;5.45;;;;;;;;;;5071940;28;20388;-58
2023/05/14 03:30:59;;;;;;;5.90;5.40;;;;;;;;;;5071319;28;20787;-57
2023/05/14 03:33:25;;;;;;;5.47;4.97;;;;;;;;;;5071698;28;20410;-57
2023/05/14 03:35:51;;;;;;;5.40;4.90;;;;;;;;;;5072129;28;20417;-57
2023/05/14 03:38:18;;;;;;;5.60;5.10;;;;;;;;;;5071776;28;20487;-57
2023/05/14 03:40:44;;;;;;;5.30;4.88;;;;;;;;;;5071948;28;20408;-57
2023/05/14 03:43:10;;;;;;;6.03;5.50;;;;;;;;;;5071320;28;20391;-57
2023/05/14 03:45:36;;;;;;;5.40;4.90;;;;;;;;;;5072110;28;20410;-57
2023/05/14 03:48:03;;;;;;;5.50;4.85;;;;;;;;;;5071893;28;20414;-57
2023/05/14 03:50:29;;;;;;;5.22;4.78;;;;;;;;;;5071891;28;20406;-57
2023/05/14 03:52:55;;;;;;;5.38;4.88;;;;;;;;;;5071455;28;20804;-57
2023/05/14 03:55:22;;;;;;;5.13;4.70;;;;;;;;;;5071655;28;20453;-57
2023/05/14 03:57:48;;;;;;;5.28;4.78;;;;;;;;;;5071491;28;20430;-57
2023/05/14 04:00:15;;;;;;;5.60;5.10;;;;;;;;;;5071339;28;20400;-57
2023/05/14 04:02:41;;;;;;;5.20;4.80;;;;;;;;;;5071375;28;20399;-57
2023/05/14 04:05:07;;;;;;;5.20;4.80;;;;;;;;;;5070353;28;20905;-57
2023/05/14 04:07:33;;;;;;;5.85;4.90;;;;;;;;;;5071384;28;20407;-58
2023/05/14 04:10:00;;;;;;;5.30;4.85;;;;;;;;;;5071142;28;20814;-57
2023/05/14 04:12:27;;;;;;;5.93;5.28;;;;;;;;;;5071240;28;20772;-58
2023/05/14 04:14:53;;;;;;;5.13;4.70;;;;;;;;;;5071189;28;20403;-57
2023/05/14 04:17:19;;;;;;;5.28;4.80;;;;;;;;;;5071108;28;20406;-57
2023/05/14 04:19:45;;;;;;;5.30;4.90;;;;;;;;;;5070995;28;20395;-57
2023/05/14 04:22:11;;;;;;;5.50;5.10;;;;;;;;;;5070890;28;20837;-59
2023/05/14 04:24:37;;;;;;;5.50;5.00;;;;;;;;;;5071084;28;20399;-57
2023/05/14 04:27:03;;;;;;;5.78;5.25;;;;;;;;;;5070766;28;20430;-58
2023/05/14 04:29:30;;;;;;;7.00;5.20;;;;;;;;;;5070938;28;20478;-58
2023/05/14 04:31:56;;;;;;;5.40;4.90;;;;;;;;;;5070769;28;20411;-57
2023/05/14 04:34:23;;;;;;;6.15;5.55;;;;;;;;;;5070765;28;20436;-59
2023/05/14 04:36:50;;;;;;;5.75;5.20;;;;;;;;;;5070990;28;20411;-57
2023/05/14 04:39:16;;;;;;;5.75;5.22;;;;;;;;;;5070559;28;20404;-58
2023/05/14 04:41:42;;;;;;;5.40;4.90;;;;;;;;;;5070701;28;20484;-57
2023/05/14 04:44:08;;;;;;;5.80;5.30;;;;;;;;;;5070515;28;20430;-57
2023/05/14 04:46:35;;;;;;;5.60;5.10;;;;;;;;;;5070582;28;20419;-57
2023/05/14 04:49:01;;;;;;;6.30;5.10;;;;;;;;;;5070486;28;20412;-57
2023/05/14 04:51:27;;;;;;;5.30;4.80;;;;;;;;;;5070337;28;20395;-58
2023/05/14 04:53:53;;;;;;;5.68;5.10;;;;;;;;;;5070751;28;20801;-57
2023/05/14 04:56:20;;;;;;;5.22;4.72;;;;;;;;;;5070463;28;20392;-57
2023/05/14 04:58:46;;;;;;;5.40;4.93;;;;;;;;;;5069120;28;20395;-57
2023/05/14 05:01:12;;;;;;;5.22;4.80;;;;;;;;;;5070133;28;20735;-57
2023/05/14 05:03:39;;;;;;;5.53;4.88;;;;;;;;;;5070244;28;20890;-57
2023/05/14 05:06:05;;;;;;;5.17;4.70;;;;;;;;;;5070335;28;20416;-57
2023/05/14 05:08:31;;;;;;;5.43;4.78;;;;;;;;;;5070176;28;20435;-57
2023/05/14 05:10:57;;;;;;;5.25;4.65;;;;;;;;;;5070170;28;20441;-56
2023/05/14 05:13:23;;;;;;;4.90;4.50;;;;;;;;;;5070150;28;20399;-57
2023/05/14 05:15:49;;;;;;;5.43;4.72;;;;;;;;;;5070105;28;20778;-57
2023/05/14 05:18:15;;;;;;;4.72;4.30;;;;;;;;;;5070062;28;20498;-57
2023/05/14 05:20:43;;;;;;;5.13;4.40;;;;;;;;;;5070086;28;20490;-57
2023/05/14 05:23:09;;;;;;;4.70;4.30;;;;;;;;;;5070301;28;20413;-57
2023/05/14 05:25:35;;;;;;;4.97;4.50;;;;;;;;;;5070172;28;20479;-58
2023/05/14 05:28:01;;;;;;;5.07;4.40;;;;;;;;;;5069955;28;20953;-57
2023/05/14 05:30:27;;;;;;;4.80;4.40;;;;;;;;;;5069898;28;20460;-57
2023/05/14 05:32:53;;;;;;;4.57;4.18;;;;;;;;;;5070096;28;20392;-57
2023/05/14 05:35:19;;;;;;;4.95;4.18;;;;;;;;;;5069959;28;20426;-57
2023/05/14 05:37:46;;;;;;;4.43;4.03;;;;;;;;;;5069949;28;20797;-57
2023/05/14 05:40:13;;;;;;;4.80;4.25;;;;;;;;;;5069882;28;20527;-57
2023/05/14 05:42:39;;;;;;;6.90;4.30;;;;;;;;;;5069974;28;20396;-57
2023/05/14 05:45:05;;;;;;;4.72;4.35;;;;;;;;;;5070095;28;21063;-57
2023/05/14 05:47:31;;;;;;;4.50;4.10;;;;;;;;;;5069710;28;20414;-57
2023/05/14 05:49:57;;;;;;;5.10;4.30;;;;;;;;;;5069852;28;20485;-58
2023/05/14 05:52:23;;;;;;;4.38;3.97;;;;;;;;;;5069743;28;20415;-57
2023/05/14 05:54:51;;;;;;;4.75;4.28;;;;;;;;;;5070067;28;20391;-57
2023/05/14 05:57:17;;;;;;;6.10;3.67;;;;;;;;;;5069681;28;20407;-57
2023/05/14 05:59:43;;;;;;;4.38;3.97;;;;;;;;;;5070054;28;20454;-57
2023/05/14 06:02:09;;;;;;;4.10;3.80;;;;;;;;;;5069576;28;20415;-58
2023/05/14 06:04:35;;;;;;;4.35;3.95;;;;;;;;;;5069908;28;20404;-58
2023/05/14 06:07:01;;;;;;;4.10;3.80;;;;;;;;;;5069526;28;20766;-57
2023/05/14 06:09:27;;;;;;;3.85;3.50;;;;;;;;;;5069568;28;20403;-58
2023/05/14 06:11:54;;;;;;;4.38;3.97;;;;;;;;;;5069687;28;20396;-58
2023/05/14 06:14:20;;;;;;;3.90;3.55;;;;;;;;;;5069951;28;20461;-58
2023/05/14 06:16:47;;;;;;;3.67;3.37;;;;;;;;;;5069570;28;20388;-58
2023/05/14 06:19:12;;;;;;;4.90;3.50;;;;;;;;;;5069661;28;20418;-58
2023/05/14 06:21:38;;;;;;;4.03;3.27;;;;;;;;;;5070669;28;20204;-58
2023/05/14 06:24:05;;;;;;;3.17;2.87;;;;;;;;;;5070847;28;20200;-58
2023/05/14 06:26:31;;;;;;;4.20;3.03;;;;;;;;;;5070529;28;20749;-58
2023/05/14 06:28:58;;;;;;;5.03;3.10;;;;;;;;;;5073808;28;20200;-58
2023/05/14 06:31:25;;;;;;;3.40;3.10;;;;;;;;;;5074182;28;20200;-58
2023/05/14 06:33:51;;;;;;;3.47;3.17;;;;;;;;;;5074331;28;20241;-59
2023/05/14 06:36:17;;;;;;;3.17;2.87;;;;;;;;;;5074087;28;20264;-59
2023/05/14 06:38:43;;;;;;;4.33;3.37;;;;;;;;;;5074207;28;20685;-59
2023/05/14 06:41:09;;;;;;;3.38;3.08;;;;;;;;;;5073055;28;20404;-58
2023/05/14 06:43:35;;;;;;;3.95;3.50;;;;;;;;;;5072755;28;20453;-58
2023/05/14 06:46:02;;;;;;;3.20;3.00;;;;;;;;;;5073944;28;20201;-59
2023/05/14 06:48:29;;;;;;;4.27;3.20;;;;;;;;;;5073935;28;20537;-59
2023/05/14 06:50:55;;;;;;;3.40;2.90;;;;;;;;;;5074037;28;20297;-58
2023/05/14 06:53:21;;;;;;;3.40;2.90;;;;;;;;;;5074007;28;20288;-58
2023/05/14 06:55:47;;;;;;;3.07;2.80;;;;;;;;;;5073934;28;20290;-59
2023/05/14 06:58:13;;;;;;;4.43;3.00;;;;;;;;;;5073766;28;20247;-58
2023/05/14 07:00:39;;;;;;;3.40;3.10;;;;;;;;;;5073641;28;20201;-60
2023/05/14 07:03:07;;;;;;;4.50;3.13;;;;;;;;;;5073864;28;20609;-58
2023/05/14 07:05:33;;;;;;;3.60;3.30;;;;;;;;;;5072381;28;20461;-58
2023/05/14 07:07:59;;;;;;;4.80;3.10;;;;;;;;;;5073691;28;20515;-58
2023/05/14 07:10:25;;;;;;;3.33;2.73;;;;;;;;;;5073688;28;20195;-58
2023/05/14 07:12:51;;;;;;;4.90;3.17;;;;;;;;;;5073859;28;20207;-57
2023/05/14 07:15:17;;;;;;;3.13;2.83;;;;;;;;;;5073588;28;20200;-58
2023/05/14 07:17:43;;;;;;;3.17;2.90;;;;;;;;;;5073421;28;20195;-58
2023/05/14 07:20:11;;;;;;;3.30;3.00;;;;;;;;;;5073394;28;20563;-57
2023/05/14 07:22:37;;;;;;;4.40;3.00;;;;;;;;;;5073548;28;20249;-57
2023/05/14 07:25:03;;;;;;;3.10;2.80;;;;;;;;;;5073392;28;20200;-57
2023/05/14 07:27:29;;;;;;;4.75;3.25;;;;;;;;;;5071999;28;20514;-58
2023/05/14 07:29:55;;;;;;;3.10;2.83;;;;;;;;;;5073171;28;20300;-58
2023/05/14 07:32:23;;;;;;;3.30;3.00;;;;;;;;;;5073210;28;20283;-56
2023/05/14 07:34:49;;;;;;;3.17;2.87;;;;;;;;;;5073104;28;20235;-55
2023/05/14 07:37:17;;;;;;;4.30;2.93;;;;;;;;;;5073053;28;20255;-59
2023/05/14 07:39:43;;;;;;;3.20;2.90;;;;;;;;;;5071736;28;20783;-58
2023/05/14 07:42:09;;;;;;;5.20;2.43;;;;;;;;;;5073036;28;20211;-58
2023/05/14 07:44:35;;;;;;;3.60;3.30;;;;;;;;;;5071881;28;20402;-57
2023/05/14 07:47:01;;;;;;;3.30;2.88;;;;;;;;;;5071881;28;20424;-58
2023/05/14 07:49:27;;;;;;;3.60;2.85;;;;;;;;;;5071674;28;20422;-57
2023/05/14 07:51:53;;;;;;;4.13;2.92;;;;;;;;;;5069668;28;20442;-57
2023/05/14 07:54:20;;;;;;;3.70;3.00;;;;;;;;;;5071484;28;20482;-57
2023/05/14 07:56:46;;;;;;;3.28;2.90;;;;;;;;;;5070957;28;20866;-57
2023/05/14 07:59:12;;;;;;;3.03;2.75;;;;;;;;;;5071343;28;20412;-57
2023/05/14 08:01:38;;;;;;;3.03;2.83;;;;;;;;;;5071160;28;20404;-57
2023/05/14 08:04:04;;;;;;;2.85;2.65;;;;;;;;;;5071480;28;20394;-57
2023/05/14 08:06:30;;;;;;;2.80;2.60;;;;;;;;;;5070827;28;20902;-57
2023/05/14 08:08:56;;;;;;;3.88;2.90;;;;;;;;;;5071210;28;20391;-57
2023/05/14 08:11:23;;;;;;;2.90;2.70;;;;;;;;;;5071025;28;20487;-57
2023/05/14 08:13:49;;;;;;;3.28;2.70;;;;;;;;;;5071069;28;20893;-58
2023/05/14 08:16:15;;;;;;;2.80;2.50;;;;;;;;;;5070766;28;20407;-57
2023/05/14 08:18:41;;;;;;;2.75;2.55;;;;;;;;;;5070849;28;20493;-58
2023/05/14 08:21:07;;;;;;;2.88;2.60;;;;;;;;;;5070964;28;20395;-57
2023/05/14 08:23:33;;;;;;;3.53;2.70;;;;;;;;;;5070951;28;20769;-57
2023/05/14 08:26:00;;;;;;;2.90;2.60;;;;;;;;;;5070761;28;20395;-57
2023/05/14 08:28:27;;;;;;;2.70;2.50;;;;;;;;;;5070557;28;20420;-58
2023/05/14 08:30:53;;;;;;;2.58;2.28;;;;;;;;;;5070569;28;20900;-58
2023/05/14 08:33:19;;;;;;;2.63;2.42;;;;;;;;;;5070750;28;20890;-57
2023/05/14 08:35:45;;;;;;;3.00;2.60;;;;;;;;;;5070241;28;20773;-58
2023/05/14 08:38:11;;;;;;;3.00;2.40;;;;;;;;;;5070652;28;20399;-58
2023/05/14 08:40:37;;;;;;;2.90;2.50;;;;;;;;;;5070421;28;20395;-58
2023/05/14 08:43:03;;;;;;;3.08;2.55;;;;;;;;;;5070647;28;20408;-58
2023/05/14 08:45:32;;;;;;;3.25;2.70;;;;;;;;;;5070284;28;20406;-58
2023/05/14 08:48:00;;;;;;;2.58;2.38;;;;;;;;;;5070288;28;20763;-58
2023/05/14 08:50:28;;;;;;;2.83;2.40;;;;;;;;;;5069864;28;20860;-59
2023/05/14 08:52:54;;;;;;;2.78;2.40;;;;;;;;;;5070082;28;20887;-58
2023/05/14 08:55:21;;;;;;;3.60;2.80;;;;;;;;;;5070398;28;20403;-58
2023/05/14 08:57:48;;;;;;;2.92;2.50;;;;;;;;;;5070101;28;20407;-58
2023/05/14 09:00:14;;;;;;;2.65;2.40;;;;;;;;;;5070168;28;20407;-57
2023/05/14 09:02:43;;;;;;;2.60;2.30;;;;;;;;;;5071159;28;20203;-58
2023/05/14 09:05:10;;;;;;;4.77;2.43;;;;;;;;;;5071241;28;20224;-58
2023/05/14 09:07:36;;;;;;;4.47;2.10;;;;;;;;;;5071255;28;20768;-58
2023/05/14 09:10:02;;;;;;;2.78;2.40;;;;;;;;;;5069873;28;20396;-58
2023/05/14 09:12:28;;;;;;;2.42;2.22;;;;;;;;;;5069986;28;20392;-58
2023/05/14 09:14:54;;;;;;;3.80;2.50;;;;;;;;;;5070041;28;20469;-58
2023/05/14 09:17:20;;;;;;;2.85;2.50;;;;;;;;;;5070123;28;20731;-58
2023/05/14 09:19:48;;;;;;;3.00;2.30;;;;;;;;;;5069936;28;20395;-57
2023/05/14 09:22:15;;;;;;;3.55;2.35;;;;;;;;;;5069886;28;20416;-57
2023/05/14 09:24:41;;;;;;;2.70;2.47;;;;;;;;;;5069770;28;20411;-58
2023/05/14 09:27:07;;;;;;;2.75;2.50;;;;;;;;;;5070345;28;20408;-58
2023/05/14 09:29:33;;;;;;;2.80;2.50;;;;;;;;;;5069942;28;20404;-58
2023/05/14 09:32:03;;;;;;;2.43;2.20;;;;;;;;;;5069911;28;20838;-58
2023/05/14 09:34:30;;;;;;;3.20;2.20;;;;;;;;;;5071253;28;20270;-58
2023/05/14 09:36:58;;;;;;;2.47;2.27;;;;;;;;;;5071199;28;20192;-56
2023/05/14 09:39:24;;;;;;;4.20;2.30;;;;;;;;;;5071229;28;20211;-57
2023/05/14 09:41:53;;;;;;;2.70;2.50;;;;;;;;;;5071314;28;20253;-60
2023/05/14 09:44:19;;;;;;;4.43;2.30;;;;;;;;;;5071124;28;20198;-58
2023/05/14 09:46:46;;;;;;;2.80;2.60;;;;;;;;;;5070860;28;20233;-55
2023/05/14 09:49:12;;;;;;;2.73;2.33;;;;;;;;;;5061679;28;20202;-59
2023/05/14 09:51:39;;;;;;;4.20;2.30;;;;;;;;;;5070073;28;20216;-59
2023/05/14 09:54:06;;;;;;;3.13;2.43;;;;;;;;;;5070714;28;20380;-59
2023/05/14 09:56:33;;;;;;;2.60;2.40;;;;;;;;;;5071020;28;20221;-60
2023/05/14 09:58:59;;;;;;;3.70;2.50;;;;;;;;;;5067053;28;20683;-60
2023/05/14 10:01:25;;;;;;;2.60;2.40;;;;;;;;;;5069150;28;20206;-57
2023/05/14 10:03:52;;;;;;;2.77;2.37;;;;;;;;;;5074098;28;20215;-58
2023/05/14 10:06:19;;;;;;;4.83;2.60;;;;;;;;;;5074905;28;20256;-58
2023/05/14 10:08:48;;;;;;;3.00;2.50;;;;;;;;;;5074809;28;20195;-58
2023/05/14 10:11:23;;;;;;;2.70;2.50;;;;;;;;;;5074745;28;20295;-59
2023/05/14 10:13:53;;;;;;;3.60;2.40;;;;;;;;;;5074924;28;20218;-60
2023/05/14 10:16:21;;;;;;;3.97;2.70;;;;;;;;;;5074827;28;20199;-60
2023/05/14 10:18:51;;;;;;;2.93;2.27;;;;;;;;;;5074677;28;20245;-60
2023/05/14 10:21:20;;;;;;;3.50;2.87;;;;;;;;;;5075409;28;20568;-60
2023/05/14 10:23:47;;;;;;;4.47;2.47;;;;;;;;;;5075035;28;20206;-59
2023/05/14 10:26:14;;;;;;;3.73;2.93;;;;;;;;;;5074410;28;20651;-60
2023/05/14 10:28:41;;;;;;;3.10;2.40;;;;;;;;;;5074409;28;20193;-60
2023/05/14 10:31:08;;;;;;;2.63;2.43;;;;;;;;;;5074721;28;20235;-60
2023/05/14 10:33:45;;;;;;;3.00;2.30;;;;;;;;;;5074647;28;20204;-60
2023/05/14 10:36:11;;;;;;;3.17;2.43;;;;;;;;;;5074043;28;20287;-60
2023/05/14 10:38:37;;;;;;;3.77;2.80;;;;;;;;;;5074036;28;20207;-60
2023/05/14 10:41:04;;;;;;;3.43;2.57;;;;;;;;;;5074123;28;20650;-60
2023/05/14 10:43:30;;;;;;;2.50;2.30;;;;;;;;;;5073985;28;20561;-60
2023/05/14 10:45:59;;;;;;;2.47;2.27;;;;;;;;;;5073902;28;20604;-59
2023/05/14 10:48:25;;;;;;;3.90;2.97;;;;;;;;;;5073911;28;20571;-59
2023/05/14 10:50:52;;;;;;;3.20;2.90;;;;;;;;;;5074144;28;20216;-59
2023/05/14 10:53:18;;;;;;;3.73;2.83;;;;;;;;;;5074007;28;20208;-59
2023/05/14 10:55:45;;;;;;;3.17;2.50;;;;;;;;;;5074029;28;20224;-59
2023/05/14 10:58:11;;;;;;;4.27;2.40;;;;;;;;;;5073916;28;20275;-58
2023/05/14 11:00:37;;;;;;;2.93;2.47;;;;;;;;;;5073639;28;20193;-58
2023/05/14 11:03:06;;;;;;;2.40;2.20;;;;;;;;;;5074023;28;20204;-59
2023/05/14 11:05:32;;;;;;;3.53;2.30;;;;;;;;;;5073693;28;20636;-59
2023/05/14 11:07:58;;;;;;;4.83;2.70;;;;;;;;;;5073712;28;20284;-58
2023/05/14 11:10:28;;;;;;;3.30;2.43;;;;;;;;;;5073810;28;20209;-59
2023/05/14 11:12:55;;;;;;;3.47;2.47;;;;;;;;;;5073234;28;20202;-59
2023/05/14 11:15:23;;;;;;;4.83;2.50;;;;;;;;;;5073849;28;20198;-59
2023/05/14 11:17:49;;;;;;;4.80;2.30;;;;;;;;;;5073580;28;20217;-60
2023/05/14 11:20:17;;;;;;;2.67;2.30;;;;;;;;;;5073368;28;20678;-60
2023/05/14 11:22:44;;;;;;;3.07;2.50;;;;;;;;;;5073416;28;20205;-59
2023/05/14 11:25:13;;;;;;;3.23;2.40;;;;;;;;;;5073440;28;20198;-59
2023/05/14 11:27:39;;;;;;;4.63;2.63;;;;;;;;;;5073321;28;20217;-60
2023/05/14 11:30:11;;;;;;;3.03;2.40;;;;;;;;;;5073543;28;20198;-59
2023/05/14 11:32:37;;;;;;;2.60;2.40;;;;;;;;;;5073356;28;20201;-59
2023/05/14 11:35:04;;;;;;;6.17;2.87;;;;;;;;;;5073222;28;20241;-59
2023/05/14 11:37:32;;;;;;;2.67;2.47;;;;;;;;;;5073252;28;20269;-59
2023/05/14 11:39:59;;;;;;;2.30;2.13;;;;;;;;;;5073053;28;20468;-59
2023/05/14 11:42:25;;;;;;;3.70;2.50;;;;;;;;;;5073099;28;20212;-59
2023/05/14 11:44:52;;;;;;;3.23;2.43;;;;;;;;;;5073287;28;20202;-60
2023/05/14 11:47:19;;;;;;;4.00;2.23;;;;;;;;;;5073063;28;20233;-59
2023/05/14 11:49:45;;;;;;;2.60;2.40;;;;;;;;;;5072751;28;20701;-60
2023/05/14 11:52:15;;;;;;;2.33;2.13;;;;;;;;;;5072794;28;20212;-60
2023/05/14 11:54:43;;;;;;;3.07;2.77;;;;;;;;;;5072661;28;20221;-58
2023/05/14 11:57:09;;;;;;;2.40;2.20;;;;;;;;;;5072842;28;20521;-59
2023/05/14 11:59:36;;;;;;;2.47;2.27;;;;;;;;;;5072838;28;20207;-59
2023/05/14 12:02:04;;;;;;;3.67;2.40;;;;;;;;;;5072847;28;20203;-59
2023/05/14 12:04:30;;;;;;;2.80;2.60;;;;;;;;;;5072628;28;20215;-57
2023/05/14 12:06:57;;;;;;;3.03;2.33;;;;;;;;;;5072359;28;20227;-56
2023/05/14 12:09:23;;;;;;;2.87;2.60;;;;;;;;;;5072499;28;20235;-55
2023/05/14 12:11:51;;;;;;;2.73;2.50;;;;;;;;;;5072436;28;20225;-56
2023/05/14 12:14:17;;;;;;;2.70;2.50;;;;;;;;;;5072367;28;20210;-56
2023/05/14 12:16:44;;;;;;;4.17;2.50;;;;;;;;;;5072218;28;20206;-56
2023/05/14 12:19:11;;;;;;;3.93;3.57;;;;;;;;;;5072324;28;20195;-57
2023/05/14 12:21:38;;;;;;;2.77;2.20;;;;;;;;;;5072485;28;20650;-57
2023/05/14 12:24:04;;;;;;;3.13;2.33;;;;;;;;;;5072222;28;20211;-57
2023/05/14 12:26:32;;;;;;;2.77;2.40;;;;;;;;;;5071440;28;20195;-56
2023/05/14 12:29:00;;;;;;;2.67;2.27;;;;;;;;;;5072059;28;20609;-58
2023/05/14 12:31:30;;;;;;;2.70;2.50;;;;;;;;;;5071921;28;20204;-56
2023/05/14 12:33:56;;;;;;;4.13;2.70;;;;;;;;;;5071844;28;20722;-56
2023/05/14 12:36:22;;;;;;;3.50;2.30;;;;;;;;;;5071935;28;20323;-56
2023/05/14 12:38:48;;;;;;;2.87;2.53;;;;;;;;;;5071690;28;20192;-57
2023/05/14 12:41:14;;;;;;;2.97;2.67;;;;;;;;;;5071856;28;20221;-56
2023/05/14 12:43:42;;;;;;;2.80;2.50;;;;;;;;;;5071625;28;20654;-57
2023/05/14 12:46:09;;;;;;;3.30;2.60;;;;;;;;;;5071675;28;20268;-57
2023/05/14 12:48:35;;;;;;;6.13;2.40;;;;;;;;;;5071910;28;20316;-60
2023/05/14 12:51:01;;;;;;;2.90;2.70;;;;;;;;;;5071579;28;20717;-57
2023/05/14 12:53:27;;;;;;;3.10;2.80;;;;;;;;;;5071526;28;20298;-62
2023/05/14 12:55:54;;;;;;;3.07;2.57;;;;;;;;;;5071626;28;20231;-61
2023/05/14 12:58:20;;;;;;;3.00;2.80;;;;;;;;;;5071784;28;20192;-61
2023/05/14 13:00:46;;;;;;;3.10;2.67;;;;;;;;;;5071529;28;20732;-61
2023/05/14 13:03:13;;;;;;;3.47;2.40;;;;;;;;;;5071294;28;20430;-60
2023/05/14 13:05:39;;;;;;;3.67;2.43;;;;;;;;;;5071537;28;20213;-62
2023/05/14 13:08:05;;;;;;;3.07;2.80;;;;;;;;;;5071476;28;20236;-62
2023/05/14 13:10:31;;;;;;;3.73;2.40;;;;;;;;;;5071307;28;20204;-62
2023/05/14 13:12:58;;;;;;;4.80;3.10;;;;;;;;;;5071259;28;20192;-62
2023/05/14 13:15:24;;;;;;;3.63;2.80;;;;;;;;;;5071432;28;20204;-62
2023/05/14 13:17:50;;;;;;;2.50;2.10;;;;;;;;;;5071469;28;20199;-62
2023/05/14 13:20:17;;;;;;;2.90;2.60;;;;;;;;;;5071429;28;20579;-63
2023/05/14 13:22:43;;;;;;;3.10;2.40;;;;;;;;;;5071246;28;20210;-62
2023/05/14 13:25:10;;;;;;;3.73;2.80;;;;;;;;;;5071324;28;20220;-62
2023/05/14 13:27:36;;;;;;;5.53;2.70;;;;;;;;;;5071517;28;20281;-62
2023/05/14 13:30:02;;;;;;;3.00;2.70;;;;;;;;;;5071359;28;20548;-62
2023/05/14 13:32:28;;;;;;;2.73;2.53;;;;;;;;;;5071371;28;20204;-62
2023/05/14 13:34:54;;;;;;;2.60;2.40;;;;;;;;;;5071048;28;20236;-62
2023/05/14 13:37:22;;;;;;;2.57;2.37;;;;;;;;;;5073945;28;20254;-66
2023/05/14 13:39:48;;;;;;;3.57;3.00;;;;;;;;;;5075250;28;20200;-62
2023/05/14 13:42:14;;;;;;;3.40;3.00;;;;;;;;;;5075432;28;20199;-62
2023/05/14 13:44:40;;;;;;;2.53;2.33;;;;;;;;;;5075237;28;20656;-62
2023/05/14 13:47:06;;;;;;;3.60;2.70;;;;;;;;;;5075178;28;20315;-62
2023/05/14 13:49:32;;;;;;;3.67;2.77;;;;;;;;;;5075241;28;20199;-62
2023/05/14 13:51:58;;;;;;;3.50;2.63;;;;;;;;;;5074973;28;20246;-62
2023/05/14 13:54:25;;;;;;;4.97;2.50;;;;;;;;;;5075177;28;20206;-62
2023/05/14 13:56:51;;;;;;;2.87;2.37;;;;;;;;;;5075123;28;20242;-62
2023/05/14 13:59:17;;;;;;;3.23;2.83;;;;;;;;;;5075043;28;20206;-62
2023/05/14 14:01:43;;;;;;;2.73;2.40;;;;;;;;;;5074960;28;20615;-62
2023/05/14 14:04:10;;;;;;;3.00;2.50;;;;;;;;;;5074706;28;20255;-61
2023/05/14 14:06:36;;;;;;;3.43;2.47;;;;;;;;;;5074938;28;20202;-62
2023/05/14 14:09:02;;;;;;;2.93;2.40;;;;;;;;;;5074662;28;20650;-62
2023/05/14 14:11:29;;;;;;;3.17;2.30;;;;;;;;;;5074950;28;20338;-62
2023/05/14 14:13:55;;;;;;;3.97;2.27;;;;;;;;;;5074666;28;20206;-62
2023/05/14 14:16:21;;;;;;;2.20;2.00;;;;;;;;;;5074806;28;20565;-62
2023/05/14 14:18:47;;;;;;;2.60;2.40;;;;;;;;;;5074617;28;20267;-62
2023/05/14 14:21:16;;;;;;;2.50;2.17;;;;;;;;;;5074405;28;20222;-62
2023/05/14 14:23:42;;;;;;;3.77;2.70;;;;;;;;;;5074493;28;20202;-62
2023/05/14 14:26:08;;;;;;;3.73;2.10;;;;;;;;;;5074469;28;20207;-62
2023/05/14 14:28:36;;;;;;;4.33;2.27;;;;;;;;;;5074491;28;20726;-62
2023/05/14 14:31:02;;;;;;;2.67;2.47;;;;;;;;;;5074248;28;20200;-62
2023/05/14 14:33:28;;;;;;;2.90;2.60;;;;;;;;;;5074416;28;20287;-62
2023/05/14 14:35:54;;;;;;;3.30;1.90;;;;;;;;;;5074073;28;20685;-62
2023/05/14 14:38:20;;;;;;;2.50;2.23;;;;;;;;;;5074404;28;20293;-62